Hattiesburg, Mississippi
Current Conditions -  °F | °C
As of 4:53 PM on Thursday 27 Nov 2014 (Local Time) from KHBG Reporting Station
Clear Clear  
Wind Chill: 52°   Ceiling: Unl
Heat Index: 52°   Visibility: 10mi
Dew Point: 31°   Wind: 7mph
Humidity: 45%   Direction: 350°N
Pressure: 30.44"   Gusts: NA
Location:  31.33°N, 89.29°W
Report Text: KHBG 272253Z AUTO 35006KT 10SM CLR 11/M01 A3044 RMK AO2 SLP307 T01111006
Loading
Personal Weather Stations






























Interactive Weather Map New forecast layout! Learn more

10-Day Weather Forecast

Advertisements
Track Severe Weather on mobile